Time;durP1;ratioP1;P1;durP2;ratioP2;P2;SDS_P1;SDS_P2;PMS_P1;PMS_P2;Temp;Humidity;BMP_temperature;BMP_pressure;BME280_temperature;BME280_humidity;BME280_pressure;Samples;Min_cycle;Max_cycle;Signal;HPM_P1;HPM_P2
2022/07/29 00:04:23;;;;;;;51.10;26.35;;;;;;;12.37;82.61;96774.50;10327654;28;20218;-60
2022/07/29 00:09:24;;;;;;;44.23;23.83;;;;;;;12.31;83.00;96771.56;10327042;28;21059;-59
2022/07/29 00:14:24;;;;;;;54.15;26.50;;;;;;;12.34;83.51;96765.13;10327826;28;20617;-59
2022/07/29 00:19:25;;;;;;;44.17;24.95;;;;;;;12.27;83.80;96764.19;10326654;28;20531;-56
2022/07/29 00:24:25;;;;;;;44.42;25.75;;;;;;;12.30;84.01;96769.91;10325771;28;20300;-56
2022/07/29 00:29:25;;;;;;;49.47;25.95;;;;;;;12.19;84.51;96757.13;10327276;28;20189;-57
2022/07/29 00:39:44;;;;;;;47.13;26.73;;;;;;;12.05;86.80;96745.50;10326726;28;20197;-60
2022/07/29 00:44:45;;;;;;;47.07;25.23;;;;;;;12.01;87.88;96741.53;10326449;28;20233;-60
2022/07/29 00:49:45;;;;;;;42.67;24.45;;;;;;;12.02;88.26;96737.09;10326538;28;20228;-60
2022/07/29 00:54:45;;;;;;;50.20;25.40;;;;;;;12.04;88.40;96727.28;10326316;28;20190;-60
2022/07/29 00:59:46;;;;;;;44.77;24.57;;;;;;;12.06;88.02;96715.59;10325795;28;20201;-60
2022/07/29 01:04:46;;;;;;;42.17;23.40;;;;;;;12.07;88.80;96706.75;10325940;28;20723;-58
2022/07/29 01:09:47;;;;;;;40.53;20.80;;;;;;;12.09;89.31;96709.22;10326032;28;20260;-59
2022/07/29 01:14:48;;;;;;;38.37;21.67;;;;;;;12.08;89.85;96707.56;10326091;28;20201;-60
2022/07/29 01:20:14;;;;;;;38.97;20.85;;;;;;;12.02;89.86;96711.69;10325274;28;20664;-58
2022/07/29 01:25:36;;;;;;;31.85;18.38;;;;;;;11.98;90.67;96702.50;10308468;28;20592;-59
2022/07/29 01:30:38;;;;;;;33.23;17.70;;;;;;;11.88;91.95;96696.56;10325480;28;20218;-58
2022/07/29 01:35:39;;;;;;;32.63;17.90;;;;;;;11.87;92.53;96695.75;10312878;28;20210;-58
2022/07/29 01:40:44;;;;;;;31.43;15.20;;;;;;;11.85;93.59;96689.00;10315797;28;20696;-58
2022/07/29 01:45:48;;;;;;;25.47;14.27;;;;;;;11.99;93.70;96682.28;10333039;28;20226;-59
2022/07/29 01:50:50;;;;;;;21.87;11.67;;;;;;;12.09;93.11;96675.06;10315700;28;20221;-59
2022/07/29 01:55:51;;;;;;;19.83;11.85;;;;;;;12.12;93.17;96678.16;10332640;28;20240;-60
2022/07/29 02:00:52;;;;;;;26.17;11.83;;;;;;;12.05;93.86;96686.88;10332449;28;20320;-61
2022/07/29 02:05:53;;;;;;;22.07;12.87;;;;;;;11.86;95.58;96685.41;10332258;28;20222;-60
2022/07/29 02:10:55;;;;;;;22.17;10.77;;;;;;;11.95;95.36;96684.44;10331816;28;20216;-61
2022/07/29 02:15:57;;;;;;;14.67;9.43;;;;;;;11.95;96.22;96674.75;10314588;28;20657;-60
2022/07/29 02:20:59;;;;;;;14.97;8.90;;;;;;;12.02;96.11;96677.56;10331063;28;20241;-60
2022/07/29 02:25:59;;;;;;;15.83;8.93;;;;;;;12.02;95.87;96664.41;10314259;28;20719;-61
2022/07/29 02:31:01;;;;;;;14.48;8.50;;;;;;;12.05;96.25;96663.25;10314010;28;20209;-59
2022/07/29 02:36:02;;;;;;;14.98;8.15;;;;;;;12.11;96.73;96665.22;10331192;28;20205;-56
2022/07/29 02:41:07;;;;;;;10.75;6.65;;;;;;;12.17;96.67;96669.78;10331072;28;20221;-55
2022/07/29 02:46:12;;;;;;;12.97;5.10;;;;;;;12.37;95.80;96659.72;10313071;28;20233;-54
2022/07/29 02:51:18;;;;;;;13.63;4.70;;;;;;;12.58;94.48;96653.09;10313161;28;20591;-57
2022/07/29 02:56:24;;;;;;;8.98;3.95;;;;;;;12.74;93.43;96650.41;10313197;28;20201;-56
2022/07/29 03:01:27;;;;;;;7.63;4.13;;;;;;;12.85;93.10;96655.28;10313031;28;20727;-56
2022/07/29 03:06:28;;;;;;;11.10;4.05;;;;;;;12.88;92.41;96656.75;10312398;28;20217;-61
2022/07/29 03:11:29;;;;;;;8.98;4.70;;;;;;;12.79;92.72;96650.69;10329592;28;20214;-60
2022/07/29 03:16:30;;;;;;;12.63;8.02;;;;;;;12.83;92.71;96654.63;10329539;28;20688;-61
2022/07/29 03:21:30;;;;;;;16.30;8.93;;;;;;;12.56;93.68;96657.72;10311459;28;20237;-61
2022/07/29 03:26:31;;;;;;;11.07;4.90;;;;;;;12.73;94.48;96655.84;10329358;28;20613;-57
2022/07/29 03:31:31;;;;;;;8.07;4.88;;;;;;;12.76;94.74;96653.66;10330366;28;20217;-60
2022/07/29 03:36:31;;;;;;;14.57;6.93;;;;;;;12.79;94.86;96634.94;10328860;28;20244;-58
2022/07/29 03:41:32;;;;;;;8.40;3.70;;;;;;;12.72;95.54;96639.22;10328460;28;20213;-60
2022/07/29 03:46:34;;;;;;;5.93;3.50;;;;;;;12.96;94.72;96632.22;10311201;28;20317;-59
2022/07/29 03:51:34;;;;;;;4.47;3.30;;;;;;;13.03;94.46;96633.13;10310992;28;20206;-58
2022/07/29 03:56:47;;;;;;;6.95;2.88;;;;;;;13.13;93.22;96633.75;10327087;28;20280;-60
2022/07/29 04:01:48;;;;;;;3.17;2.60;;;;;;;13.19;93.21;96633.03;10310493;28;20303;-60
2022/07/29 04:06:48;;;;;;;7.43;2.90;;;;;;;13.26;92.67;96633.19;10309653;28;20275;-60
2022/07/29 04:11:48;;;;;;;6.63;3.20;;;;;;;13.14;93.50;96640.66;10327022;28;20696;-61
2022/07/29 04:16:49;;;;;;;7.72;2.83;;;;;;;13.27;93.41;96634.78;10327535;28;20188;-61
2022/07/29 04:21:49;;;;;;;6.22;3.10;;;;;;;13.32;92.75;96629.00;10326132;28;20229;-59
2022/07/29 04:26:49;;;;;;;6.57;2.67;;;;;;;13.42;92.53;96629.63;10327401;28;20276;-61
2022/07/29 04:31:50;;;;;;;4.78;2.72;;;;;;;13.55;91.93;96637.75;10326987;28;20637;-61
2022/07/29 04:36:50;;;;;;;4.13;2.47;;;;;;;13.77;90.93;96642.31;10326732;28;20189;-62
2022/07/29 04:41:51;;;;;;;4.95;2.80;;;;;;;13.91;90.33;96639.72;10326830;28;20281;-61
2022/07/29 04:46:51;;;;;;;3.65;2.65;;;;;;;14.02;89.75;96646.38;10326428;28;20228;-61
2022/07/29 04:51:51;;;;;;;4.03;2.65;;;;;;;14.03;90.01;96649.84;10326760;28;20572;-62
2022/07/29 04:56:52;;;;;;;5.38;2.20;;;;;;;14.24;88.65;96636.78;10326278;28;20796;-61
2022/07/29 05:01:52;;;;;;;13.80;3.05;;;;;;;14.51;88.29;96637.13;10326695;28;20692;-62
2022/07/29 05:06:52;;;;;;;5.90;2.67;;;;;;;14.63;86.83;96632.25;10326045;28;20321;-62
2022/07/29 05:11:53;;;;;;;8.00;3.00;;;;;;;14.87;85.39;96631.09;10333872;28;20214;-62
2022/07/29 05:16:56;;;;;;;9.30;2.97;;;;;;;15.32;83.66;96621.22;10334409;28;20190;-60
2022/07/29 05:21:56;;;;;;;10.65;2.90;;;;;;;15.68;82.70;96625.59;10375816;22;20315;-52
2022/07/29 05:26:57;;;;;;;3.90;2.30;;;;;;;16.21;79.75;96600.56;10415473;28;20587;-54
2022/07/29 05:31:57;;;;;;;8.40;2.20;;;;;;;16.93;77.26;96583.41;10414663;28;20265;-55
2022/07/29 05:36:58;;;;;;;10.88;2.70;;;;;;;17.24;74.55;96560.88;10414834;28;20201;-54
2022/07/29 05:41:58;;;;;;;4.20;2.97;;;;;;;17.98;71.83;96543.09;10414626;28;20274;-54
2022/07/29 05:46:59;;;;;;;3.53;2.28;;;;;;;18.42;70.68;96548.66;10414156;28;20235;-58
2022/07/29 05:51:59;;;;;;;8.20;3.50;;;;;;;18.61;70.23;96552.28;10414445;28;20216;-52
2022/07/29 05:56:59;;;;;;;4.50;2.67;;;;;;;18.47;68.66;96537.47;10413876;28;20232;-55
2022/07/29 06:02:00;;;;;;;4.90;2.80;;;;;;;18.41;69.21;96544.41;10413533;28;20228;-52
2022/07/29 06:07:00;;;;;;;5.97;2.60;;;;;;;18.23;70.37;96568.94;10413256;28;20228;-52
2022/07/29 06:12:01;;;;;;;4.10;2.88;;;;;;;17.79;72.93;96599.56;10412883;28;20228;-57
2022/07/29 06:17:01;;;;;;;6.90;2.83;;;;;;;18.68;72.60;96611.44;10412133;28;20188;-53
2022/07/29 06:22:02;;;;;;;5.15;2.53;;;;;;;19.18;67.83;96538.28;10411498;28;20237;-54
2022/07/29 06:27:03;;;;;;;3.55;2.80;;;;;;;19.21;67.57;96551.16;10412857;28;20229;-53
2022/07/29 06:32:03;;;;;;;7.07;2.60;;;;;;;19.64;65.85;96538.94;10412024;28;20565;-55
2022/07/29 06:37:07;;;;;;;4.28;2.50;;;;;;;19.54;65.79;96542.09;10412596;28;20203;-51
2022/07/29 06:42:07;;;;;;;5.00;2.70;;;;;;;19.99;64.77;96528.63;10411981;28;20220;-53
2022/07/29 06:47:08;;;;;;;6.22;2.63;;;;;;;20.48;66.19;96576.56;10394092;28;20690;-54
2022/07/29 06:52:09;;;;;;;5.68;2.53;;;;;;;20.77;64.41;96540.41;10412140;28;20659;-55
2022/07/29 06:57:09;;;;;;;5.60;2.53;;;;;;;21.38;62.63;96525.16;10411513;28;20188;-57
2022/07/29 07:02:09;;;;;;;4.10;2.65;;;;;;;21.88;60.77;96509.78;10408452;28;20247;-58
2022/07/29 07:07:10;;;;;;;7.50;2.55;;;;;;;22.56;56.48;96451.41;10407374;28;20299;-53
2022/07/29 07:12:10;;;;;;;4.13;2.40;;;;;;;23.33;54.72;96432.09;10409729;28;20271;-50
2022/07/29 07:17:10;;;;;;;6.20;2.55;;;;;;;23.33;54.31;96439.31;10409635;28;20200;-51
2022/07/29 07:22:11;;;;;;;5.90;3.17;;;;;;;23.89;53.98;96438.50;10409688;28;20243;-56
2022/07/29 07:27:11;;;;;;;6.40;2.35;;;;;;;24.25;52.12;96418.31;10409912;28;20232;-54
2022/07/29 07:32:13;;;;;;;8.95;3.08;;;;;;;23.57;55.37;96479.22;10410263;28;20292;-51
2022/07/29 07:37:14;;;;;;;11.07;4.03;;;;;;;23.75;53.29;96425.47;10410013;28;20188;-51
2022/07/29 07:42:14;;;;;;;11.18;3.42;;;;;;;23.94;53.17;96427.88;10409304;28;20623;-51
2022/07/29 07:47:19;;;;;;;8.02;3.50;;;;;;;24.20;53.70;96447.72;10409564;28;20224;-52
2022/07/29 07:52:21;;;;;;;6.72;2.60;;;;;;;23.47;53.07;96413.03;10409919;28;20793;-52
2022/07/29 07:57:21;;;;;;;7.03;3.35;;;;;;;23.44;52.65;96411.66;10409335;28;20212;-53
2022/07/29 08:02:21;;;;;;;7.53;3.20;;;;;;;24.27;50.52;96381.38;10408699;28;20266;-55
2022/07/29 08:07:22;;;;;;;3.78;2.78;;;;;;;25.78;48.63;96388.44;10408531;28;20223;-51
2022/07/29 08:12:22;;;;;;;8.23;2.53;;;;;;;25.87;45.17;96270.66;10408696;28;20232;-52
2022/07/29 08:17:23;;;;;;;4.72;2.60;;;;;;;26.27;45.39;96308.59;10408186;28;20527;-52
2022/07/29 08:22:23;;;;;;;7.18;2.25;;;;;;;26.91;45.27;96319.91;10407998;28;20262;-55
2022/07/29 08:27:23;;;;;;;4.70;2.13;;;;;;;25.26;45.71;96290.00;10408113;28;20255;-52
2022/07/29 08:32:24;;;;;;;6.65;1.92;;;;;;;24.31;46.71;96293.38;10405034;28;20463;-58
2022/07/29 08:37:24;;;;;;;5.75;2.17;;;;;;;23.82;48.87;96340.47;10401262;28;20192;-59
2022/07/29 08:42:24;;;;;;;3.85;2.20;;;;;;;23.76;47.57;96304.03;10408330;28;20627;-52
2022/07/29 08:47:26;;;;;;;2.80;1.90;;;;;;;24.97;45.64;96297.63;10406132;28;20619;-52
2022/07/29 08:52:27;;;;;;;3.63;1.85;;;;;;;25.75;45.48;96327.25;10404967;28;20219;-52
2022/07/29 08:57:27;;;;;;;3.33;1.90;;;;;;;24.97;43.63;96257.44;10390224;28;20288;-53
2022/07/29 09:02:29;;;;;;;8.07;1.90;;;;;;;25.11;44.91;96296.09;10406075;28;20216;-53
2022/07/29 09:07:29;;;;;;;5.47;2.20;;;;;;;24.35;45.43;96283.75;10407040;28;20220;-53
2022/07/29 09:12:30;;;;;;;3.40;1.88;;;;;;;24.44;45.60;96292.94;10407606;28;20212;-54
2022/07/29 09:17:44;;;;;;;3.63;2.00;;;;;;;24.52;45.02;96281.75;10406788;28;20246;-51
2022/07/29 09:22:48;;;;;;;5.32;2.10;;;;;;;24.24;45.51;96274.03;10406648;28;20232;-56
2022/07/29 09:27:50;;;;;;;3.35;1.77;;;;;;;24.52;44.81;96294.34;10407071;28;20303;-50
2022/07/29 09:32:58;;;;;;;4.03;2.10;;;;;;;24.47;44.76;96280.91;10389373;28;20250;-52
2022/07/29 09:38:09;;;;;;;4.93;2.30;;;;;;;24.71;43.57;96260.75;10406603;28;20241;-52
2022/07/29 09:43:11;;;;;;;5.80;1.73;;;;;;;24.84;44.29;96280.94;10389237;28;20212;-54
2022/07/29 09:48:18;;;;;;;5.82;2.10;;;;;;;24.88;43.35;96259.78;10406677;28;20228;-51
2022/07/29 09:53:39;;;;;;;4.63;2.00;;;;;;;25.59;42.11;96243.22;10406607;28;20213;-52
2022/07/29 09:58:39;;;;;;;4.68;2.10;;;;;;;25.95;41.92;96245.97;10413599;28;20238;-51
2022/07/29 10:04:06;;;;;;;2.73;1.90;;;;;;;27.28;40.75;96265.78;10413793;28;20278;-55
2022/07/29 10:09:09;;;;;;;3.97;1.92;;;;;;;27.70;39.47;96240.31;10393940;28;20524;-52
2022/07/29 10:14:09;;;;;;;4.20;2.15;;;;;;;26.83;39.94;96192.25;10413461;28;20216;-52
2022/07/29 10:19:09;;;;;;;3.63;1.88;;;;;;;28.47;38.33;96214.75;10395871;28;20258;-56
2022/07/29 10:24:10;;;;;;;4.18;2.08;;;;;;;27.29;40.35;96235.13;10411724;28;20236;-53
2022/07/29 10:29:10;;;;;;;2.47;1.83;;;;;;;27.29;39.19;96218.97;10393718;28;20220;-55
2022/07/29 10:34:23;;;;;;;4.20;1.90;;;;;;;29.39;37.78;96248.03;10412406;28;20308;-52
2022/07/29 10:39:47;;;;;;;6.70;1.92;;;;;;;28.68;36.80;96183.00;10411400;28;20428;-57
2022/07/29 10:44:48;;;;;;;4.55;2.03;;;;;;;29.15;37.75;96224.53;10411887;28;20302;-59
2022/07/29 10:50:05;;;;;;;3.78;1.77;;;;;;;27.98;38.11;96173.41;10412070;28;20196;-55
2022/07/29 10:55:06;;;;;;;2.45;1.90;;;;;;;26.47;41.74;96240.66;10409460;28;20204;-54
2022/07/29 11:00:14;;;;;;;5.50;2.30;;;;;;;26.80;40.37;96198.97;10411826;28;20188;-56
2022/07/29 11:05:19;;;;;;;5.20;2.30;;;;;;;26.62;40.96;96216.47;10410811;28;20244;-57
2022/07/29 11:10:20;;;;;;;4.05;1.90;;;;;;;26.17;42.15;96242.25;10410858;28;20197;-57
2022/07/29 11:15:21;;;;;;;2.97;2.20;;;;;;;25.35;44.37;96285.00;10411053;28;20695;-56
2022/07/29 11:20:37;;;;;;;3.65;2.47;;;;;;;26.18;43.02;96278.78;10410108;28;20192;-54
2022/07/29 11:25:37;;;;;;;5.13;2.10;;;;;;;26.14;42.65;96259.72;10399974;22;20604;-58
2022/07/29 11:30:54;;;;;;;4.72;2.40;;;;;;;26.68;41.34;96242.28;10338475;28;20204;-58
2022/07/29 11:36:10;;;;;;;3.65;2.17;;;;;;;27.51;40.61;96242.84;10329077;28;20418;-59
2022/07/29 11:41:24;;;;;;;8.13;2.10;;;;;;;26.84;41.09;96244.94;10328826;28;20193;-59
2022/07/29 11:46:47;;;;;;;6.82;2.20;;;;;;;26.94;41.18;96261.03;10328859;28;20226;-59
2022/07/29 11:51:52;;;;;;;3.63;2.00;;;;;;;27.81;41.35;96286.84;10328541;28;20193;-58
2022/07/29 11:56:52;;;;;;;5.38;2.13;;;;;;;28.13;40.20;96274.78;10328278;28;20213;-57
2022/07/29 12:01:54;;;;;;;5.10;2.10;;;;;;;26.52;42.45;96273.72;10334915;28;20189;-56
2022/07/29 12:06:55;;;;;;;3.25;2.20;;;;;;;26.93;41.11;96262.09;10328189;28;20667;-57
2022/07/29 12:11:59;;;;;;;4.90;2.45;;;;;;;26.17;42.90;96282.53;10327964;28;20193;-59
2022/07/29 12:17:00;;;;;;;3.08;2.22;;;;;;;26.98;42.54;96298.94;10327045;28;20214;-57
2022/07/29 12:22:00;;;;;;;10.18;2.25;;;;;;;27.53;40.63;96245.25;10327138;28;20193;-56
2022/07/29 12:27:01;;;;;;;3.30;1.90;;;;;;;27.53;40.23;96212.97;10327107;28;20246;-58
2022/07/29 12:32:03;;;;;;;4.63;2.40;;;;;;;28.08;39.62;96224.47;10327509;28;20460;-57
2022/07/29 12:37:03;;;;;;;6.57;2.50;;;;;;;28.58;38.47;96212.75;10326809;28;20213;-58
2022/07/29 12:42:14;;;;;;;4.82;1.80;;;;;;;30.12;36.75;96218.94;10309931;28;20619;-59
2022/07/29 12:47:17;;;;;;;3.58;1.90;;;;;;;31.42;34.83;96207.41;10326582;28;20270;-59
2022/07/29 12:52:24;;;;;;;2.85;2.00;;;;;;;31.25;34.54;96160.13;10326920;28;20679;-61
2022/07/29 12:57:25;;;;;;;7.28;2.10;;;;;;;29.68;35.99;96139.94;10326790;28;20554;-60
2022/07/29 13:02:25;;;;;;;6.20;2.03;;;;;;;28.79;37.75;96167.50;10326594;28;20201;-59
2022/07/29 13:07:29;;;;;;;3.93;2.20;;;;;;;28.06;38.36;96161.22;10326334;28;20312;-58
2022/07/29 13:12:30;;;;;;;3.38;2.00;;;;;;;28.50;37.96;96162.16;10326184;28;20491;-59
2022/07/29 13:17:39;;;;;;;3.27;2.00;;;;;;;27.16;40.07;96181.91;10308859;28;20218;-60
2022/07/29 13:22:42;;;;;;;3.45;1.98;;;;;;;26.64;40.60;96174.00;10324879;28;20444;-58
2022/07/29 13:27:44;;;;;;;2.25;1.80;;;;;;;26.96;40.86;96207.00;10325993;28;20242;-58
2022/07/29 13:32:45;;;;;;;5.60;2.47;;;;;;;26.77;41.00;96207.59;10334230;28;20191;-60
2022/07/29 13:37:46;;;;;;;2.22;2.03;;;;;;;26.34;41.15;96207.91;10333388;28;20198;-60
2022/07/29 13:42:46;;;;;;;4.80;2.47;;;;;;;26.93;40.76;96202.19;10333796;28;20665;-59
2022/07/29 13:47:47;;;;;;;4.93;2.20;;;;;;;28.52;38.38;96189.63;10333204;28;20229;-61
2022/07/29 13:52:48;;;;;;;3.17;2.10;;;;;;;29.18;38.44;96221.25;10333228;28;20573;-60
2022/07/29 13:57:48;;;;;;;3.20;1.90;;;;;;;29.40;37.50;96184.06;10333196;28;20186;-61
2022/07/29 14:02:49;;;;;;;3.67;2.90;;;;;;;29.25;37.96;96196.69;10332402;28;20202;-61
2022/07/29 14:07:49;;;;;;;5.03;2.30;;;;;;;29.45;37.93;96195.59;10333223;28;20543;-61
2022/07/29 14:12:49;;;;;;;5.03;2.17;;;;;;;28.99;37.21;96144.94;10332374;28;20725;-61
2022/07/29 14:17:50;;;;;;;1.90;1.67;;;;;;;28.32;38.30;96144.84;10332580;28;20429;-61
2022/07/29 14:22:50;;;;;;;5.77;1.97;;;;;;;28.69;38.42;96181.13;10332155;28;20437;-61
2022/07/29 14:27:52;;;;;;;4.07;2.07;;;;;;;29.22;38.13;96185.66;10331610;28;20564;-62
2022/07/29 14:32:53;;;;;;;4.00;2.40;;;;;;;30.11;37.04;96200.31;10332467;28;20511;-62
2022/07/29 14:37:54;;;;;;;5.13;2.40;;;;;;;30.64;35.11;96143.19;10331249;28;20756;-61
2022/07/29 14:42:54;;;;;;;2.63;1.85;;;;;;;29.91;35.97;96147.44;10331023;28;20973;-61
2022/07/29 14:47:54;;;;;;;2.70;2.17;;;;;;;28.88;37.11;96133.44;10331083;28;20277;-60
2022/07/29 14:52:55;;;;;;;4.72;2.30;;;;;;;30.20;37.07;96203.97;10330751;28;20433;-61
2022/07/29 14:57:55;;;;;;;6.50;2.20;;;;;;;32.40;33.02;96175.41;10331127;28;20745;-61
2022/07/29 15:02:56;;;;;;;8.00;2.25;;;;;;;31.19;34.34;96139.69;10330639;28;20821;-62
2022/07/29 15:07:57;;;;;;;4.53;2.30;;;;;;;29.78;35.51;96111.16;10331040;28;20291;-59
2022/07/29 15:12:57;;;;;;;4.47;1.88;;;;;;;29.94;35.83;96133.34;10312605;28;20222;-59
2022/07/29 15:17:57;;;;;;;4.13;2.10;;;;;;;31.68;33.35;96145.41;10330127;28;20193;-61
2022/07/29 15:22:58;;;;;;;8.13;2.50;;;;;;;30.86;33.95;96106.53;10329151;28;20441;-62
2022/07/29 15:28:01;;;;;;;3.30;2.23;;;;;;;30.93;33.89;96096.13;10329267;28;20571;-62
2022/07/29 15:33:02;;;;;;;5.90;2.50;;;;;;;29.87;35.38;96098.63;10329568;28;20862;-62
2022/07/29 15:38:03;;;;;;;2.65;2.10;;;;;;;29.78;36.05;96109.25;10329676;28;20190;-62
2022/07/29 15:43:05;;;;;;;3.85;2.28;;;;;;;27.94;37.89;96078.09;10329255;28;20273;-62
2022/07/29 15:48:06;;;;;;;5.22;2.22;;;;;;;27.75;38.21;96105.72;10329633;28;20221;-63
2022/07/29 15:53:06;;;;;;;6.80;2.50;;;;;;;27.62;39.02;96121.69;10364673;28;20298;-62
2022/07/29 15:58:07;;;;;;;7.30;2.40;;;;;;;27.21;40.46;96137.00;10369289;28;20220;-62
2022/07/29 16:03:07;;;;;;;4.03;2.10;;;;;;;27.33;39.79;96114.34;10369017;28;20209;-63
2022/07/29 16:08:07;;;;;;;4.77;2.30;;;;;;;27.52;40.41;96149.47;10367072;28;20576;-62
2022/07/29 16:13:08;;;;;;;5.00;2.30;;;;;;;27.81;40.59;96162.19;10368171;28;20464;-62
2022/07/29 16:18:09;;;;;;;3.83;2.20;;;;;;;27.55;40.35;96160.47;10369244;28;20431;-62
2022/07/29 16:23:11;;;;;;;6.68;2.22;;;;;;;26.75;41.11;96139.06;10367329;28;20558;-61
2022/07/29 16:28:11;;;;;;;3.67;2.40;;;;;;;26.82;41.47;96161.88;10378640;28;20272;-59
2022/07/29 16:33:11;;;;;;;2.97;2.40;;;;;;;26.70;41.83;96177.50;10367792;28;20205;-60
2022/07/29 16:38:12;;;;;;;2.65;2.05;;;;;;;26.74;42.58;96170.53;10367691;28;20189;-58
2022/07/29 16:43:12;;;;;;;5.83;2.40;;;;;;;26.40;43.29;96189.91;10367657;28;20588;-58
2022/07/29 16:48:13;;;;;;;4.22;2.63;;;;;;;26.38;43.34;96188.56;10367386;28;21000;-59
2022/07/29 16:53:14;;;;;;;3.78;2.25;;;;;;;26.34;43.10;96182.94;10367432;28;20219;-58
2022/07/29 16:58:14;;;;;;;4.70;2.07;;;;;;;26.26;42.67;96178.09;10368008;28;20197;-58
2022/07/29 17:03:14;;;;;;;6.05;2.65;;;;;;;25.88;43.97;96193.63;10367918;28;20561;-58
2022/07/29 17:08:15;;;;;;;5.40;2.27;;;;;;;25.93;43.41;96189.09;10375519;28;20231;-57
2022/07/29 17:13:15;;;;;;;3.42;2.50;;;;;;;25.54;44.11;96189.56;10375134;28;20874;-58
2022/07/29 17:18:15;;;;;;;4.72;1.95;;;;;;;25.55;44.68;96207.28;10375151;28;20288;-59
2022/07/29 17:23:16;;;;;;;5.60;2.30;;;;;;;25.41;45.47;96235.66;10373910;28;20616;-60
2022/07/29 17:28:16;;;;;;;6.10;2.55;;;;;;;25.34;45.78;96235.09;10375500;28;20634;-60
2022/07/29 17:33:16;;;;;;;2.97;2.30;;;;;;;25.11;47.54;96288.03;10376963;28;20644;-60
2022/07/29 17:38:17;;;;;;;6.40;2.17;;;;;;;25.05;47.31;96264.97;10378618;28;20581;-58
2022/07/29 17:43:17;;;;;;;4.18;2.60;;;;;;;24.16;49.61;96296.69;10378019;28;20847;-58
2022/07/29 17:48:18;;;;;;;5.53;2.72;;;;;;;23.68;51.65;96349.94;10416663;23;20248;-57
2022/07/29 17:53:19;;;;;;;9.10;2.80;;;;;;;23.67;52.16;96365.16;10413603;28;20231;-57
2022/07/29 17:58:19;;;;;;;7.13;2.50;;;;;;;23.64;52.22;96354.16;10413385;28;20208;-58
2022/07/29 18:03:19;;;;;;;5.30;2.80;;;;;;;23.61;53.44;96381.41;10437215;28;20196;-58
2022/07/29 18:08:20;;;;;;;5.35;2.65;;;;;;;23.12;55.46;96398.94;10454082;28;20230;-57
2022/07/29 18:13:20;;;;;;;7.32;3.22;;;;;;;22.55;57.73;96444.41;10454055;28;20226;-57
2022/07/29 18:18:21;;;;;;;9.60;3.40;;;;;;;21.64;59.72;96458.31;10452450;28;20219;-57
2022/07/29 18:23:21;;;;;;;12.00;3.53;;;;;;;21.71;60.63;96467.81;10453341;28;20199;-56
2022/07/29 18:28:21;;;;;;;4.30;3.13;;;;;;;21.35;62.45;96482.97;10453530;28;20236;-59
2022/07/29 18:33:22;;;;;;;5.80;2.85;;;;;;;21.08;62.93;96484.44;10452995;28;20198;-56
2022/07/29 18:38:22;;;;;;;4.80;2.80;;;;;;;20.85;64.58;96481.50;10452083;28;20650;-58
2022/07/29 18:43:22;;;;;;;7.45;3.20;;;;;;;20.08;66.29;96478.63;10452153;28;20701;-58
2022/07/29 18:48:23;;;;;;;5.75;3.00;;;;;;;20.30;66.13;96466.44;10452867;28;20785;-56
2022/07/29 18:53:23;;;;;;;12.05;2.85;;;;;;;20.25;66.50;96457.53;10452483;28;20992;-53
2022/07/29 18:58:23;;;;;;;4.38;3.30;;;;;;;20.13;66.56;96458.28;10452348;28;20283;-55
2022/07/29 19:03:24;;;;;;;5.07;3.35;;;;;;;19.49;69.18;96489.59;10452450;28;20219;-57
2022/07/29 19:08:24;;;;;;;7.13;3.80;;;;;;;19.01;71.00;96504.28;10451504;28;20219;-57
2022/07/29 19:13:24;;;;;;;4.65;4.05;;;;;;;19.02;71.85;96497.13;10452551;28;20235;-56
2022/07/29 19:18:25;;;;;;;5.85;3.22;;;;;;;19.19;71.42;96500.09;10452074;28;20214;-56
2022/07/29 19:23:25;;;;;;;6.63;3.55;;;;;;;19.06;72.43;96498.34;10451952;28;20278;-59
2022/07/29 19:28:26;;;;;;;7.22;3.53;;;;;;;19.17;72.29;96497.66;10451362;28;20235;-58
2022/07/29 19:33:26;;;;;;;3.88;3.10;;;;;;;19.07;73.33;96511.41;10451814;28;20192;-58
2022/07/29 19:38:26;;;;;;;4.28;3.85;;;;;;;19.10;72.47;96494.22;10451376;28;20294;-56
2022/07/29 19:43:27;;;;;;;4.50;3.35;;;;;;;18.81;73.12;96496.44;10451327;28;20235;-54
2022/07/29 19:48:27;;;;;;;8.38;3.50;;;;;;;18.92;72.85;96497.63;10450730;28;20239;-54
2022/07/29 19:53:27;;;;;;;8.82;3.42;;;;;;;18.92;72.64;96499.47;10451037;28;20218;-59
2022/07/29 19:58:28;;;;;;;6.65;3.88;;;;;;;18.75;73.01;96502.59;10450824;28;20215;-57
2022/07/29 20:03:28;;;;;;;7.63;3.50;;;;;;;18.78;72.72;96504.81;10450173;28;20246;-56
2022/07/29 20:08:29;;;;;;;5.28;3.28;;;;;;;18.66;72.72;96501.22;10449811;28;20230;-58
2022/07/29 20:13:31;;;;;;;6.40;3.67;;;;;;;18.76;71.13;96477.69;10450111;28;20270;-58
2022/07/29 20:18:32;;;;;;;9.45;3.53;;;;;;;18.75;71.40;96481.38;10449862;28;20202;-56
2022/07/29 20:23:32;;;;;;;6.07;3.53;;;;;;;18.66;71.99;96490.63;10449377;28;20199;-58
2022/07/29 20:28:32;;;;;;;6.55;3.47;;;;;;;18.52;72.77;96503.13;10449257;28;20234;-58
2022/07/29 20:33:33;;;;;;;3.88;3.35;;;;;;;18.35;73.59;96511.56;10449690;28;20273;-54
2022/07/29 20:38:33;;;;;;;4.88;3.38;;;;;;;18.16;74.67;96523.91;10448509;28;20216;-54
2022/07/29 20:43:33;;;;;;;5.03;4.15;;;;;;;18.04;75.43;96530.88;10449279;28;20334;-54
2022/07/29 20:48:34;;;;;;;5.30;3.88;;;;;;;18.01;75.38;96526.00;10448796;28;20240;-57
2022/07/29 20:53:37;;;;;;;6.53;4.00;;;;;;;17.97;75.40;96519.47;10449038;28;20198;-57
2022/07/29 20:58:39;;;;;;;5.97;3.78;;;;;;;17.93;75.72;96518.25;10449296;28;20745;-53
2022/07/29 21:03:39;;;;;;;4.20;3.78;;;;;;;17.88;76.31;96525.97;10449040;28;20195;-59
2022/07/29 21:08:40;;;;;;;7.40;4.05;;;;;;;17.78;77.01;96526.41;10448885;28;20223;-58
2022/07/29 21:13:43;;;;;;;10.15;4.75;;;;;;;17.63;78.17;96529.28;10448723;28;20286;-57
2022/07/29 21:18:45;;;;;;;8.23;4.13;;;;;;;17.57;79.06;96532.75;10448492;28;20246;-58
2022/07/29 21:23:45;;;;;;;8.85;4.10;;;;;;;17.59;79.80;96528.06;10448627;28;20227;-58
2022/07/29 21:28:46;;;;;;;7.30;4.50;;;;;;;17.65;79.38;96514.00;10448288;28;20302;-59
2022/07/29 21:33:46;;;;;;;9.07;4.80;;;;;;;17.60;79.73;96521.75;10448569;28;20200;-60
2022/07/29 21:38:46;;;;;;;8.95;4.20;;;;;;;17.79;79.85;96528.03;10448342;28;20207;-59
2022/07/29 21:43:47;;;;;;;7.35;4.40;;;;;;;17.93;79.20;96524.38;10448254;28;20220;-58
2022/07/29 21:48:47;;;;;;;6.60;4.75;;;;;;;17.92;78.88;96516.63;10430106;28;20710;-60
2022/07/29 21:53:49;;;;;;;6.53;4.80;;;;;;;17.91;79.19;96518.44;10455645;28;20200;-55
2022/07/29 21:58:49;;;;;;;8.55;4.50;;;;;;;17.91;79.45;96525.59;10455592;28;20211;-60
2022/07/29 22:03:49;;;;;;;8.23;4.97;;;;;;;17.72;80.64;96530.69;10455046;28;20266;-59
2022/07/29 22:08:50;;;;;;;7.78;4.78;;;;;;;17.65;82.49;96529.88;10454872;28;20211;-58
2022/07/29 22:13:51;;;;;;;6.78;5.05;;;;;;;17.50;82.78;96529.28;10454379;28;20196;-59
2022/07/29 22:18:51;;;;;;;7.60;4.43;;;;;;;17.57;83.33;96532.75;10454146;28;20231;-59
2022/07/29 22:23:51;;;;;;;8.50;4.60;;;;;;;17.40;83.95;96525.22;10453546;28;20203;-57
2022/07/29 22:28:52;;;;;;;8.00;5.47;;;;;;;17.38;85.40;96535.22;10453908;28;20223;-60
2022/07/29 22:33:52;;;;;;;8.90;4.38;;;;;;;17.51;84.79;96534.38;10453898;28;20238;-60
2022/07/29 22:38:52;;;;;;;6.03;4.47;;;;;;;17.65;83.83;96529.88;10453432;28;20203;-59
2022/07/29 22:43:53;;;;;;;7.35;4.13;;;;;;;17.80;82.53;96519.88;10453724;28;20200;-59
2022/07/29 22:48:53;;;;;;;5.47;4.25;;;;;;;17.94;81.18;96511.94;10452782;28;20346;-59
2022/07/29 22:53:53;;;;;;;8.55;4.32;;;;;;;18.04;80.67;96508.81;10453174;28;20188;-59
2022/07/29 22:58:54;;;;;;;4.93;4.13;;;;;;;17.94;81.82;96515.38;10452562;28;20226;-58
2022/07/29 23:03:54;;;;;;;5.75;4.38;;;;;;;18.11;81.50;96542.25;10452128;28;20275;-57
2022/07/29 23:08:55;;;;;;;5.00;4.20;;;;;;;18.56;79.43;96530.03;10451813;28;20302;-58
2022/07/29 23:13:55;;;;;;;5.05;4.30;;;;;;;18.76;81.43;96544.03;10452247;28;20198;-59
2022/07/29 23:18:55;;;;;;;9.05;4.95;;;;;;;18.57;85.46;96566.97;10452107;28;20200;-55
2022/07/29 23:23:56;;;;;;;8.00;5.07;;;;;;;18.32;90.91;96575.66;10451585;28;20667;-58
2022/07/29 23:28:56;;;;;;;7.03;5.05;;;;;;;18.37;94.87;96567.06;10451630;28;20735;-54